Time;durP1;ratioP1;P1;durP2;ratioP2;P2;SDS_P1;SDS_P2;PMS_P1;PMS_P2;Temp;Humidity;BMP_temperature;BMP_pressure;BME280_temperature;BME280_humidity;BME280_pressure;Samples;Min_cycle;Max_cycle;Signal;HPM_P1;HPM_P2
2024/02/05 00:01:39;;;;;;;;;;;;;;;8.52;71.17;98450.38;5056136;28;20018;-90
2024/02/05 00:04:27;;;;;;;;;;;;;;;8.50;71.23;98440.91;5073227;28;20085;-88
2024/02/05 00:07:19;;;;;;;;;;;;;;;8.53;71.23;98451.19;5052223;28;19928;-89
2024/02/05 00:10:08;;;;;;;;;;;;;;;8.54;71.51;98441.97;5054307;28;19928;-89
2024/02/05 00:12:57;;;;;;;;;;;;;;;8.53;71.36;98451.19;5052095;28;19964;-89
2024/02/05 00:15:45;;;;;;;;;;;;;;;8.51;71.47;98450.66;5052425;28;19924;-89
2024/02/05 00:18:33;;;;;;;;;;;;;;;8.48;71.77;98462.06;5053379;28;19925;-89
2024/02/05 00:21:21;;;;;;;;;;;;;;;8.43;72.09;98457.50;5051058;28;20380;-89
2024/02/05 00:24:12;;;;;;;;;;;;;;;8.47;72.01;98452.31;5066021;28;19924;-90
2024/02/05 00:27:00;;;;;;;;;;;;;;;8.48;72.13;98464.78;5047990;28;20058;-90
2024/02/05 00:29:48;;;;;;;;;;;;;;;8.49;71.82;98467.19;5069137;28;19933;-90
2024/02/05 00:32:37;;;;;;;;;;;;;;;8.48;72.25;98462.06;5054944;28;19925;-89
2024/02/05 00:35:26;;;;;;;;;;;;;;;8.46;72.28;98461.53;5066970;28;19925;-90
2024/02/05 00:38:15;;;;;;;;;;;;;;;8.40;72.39;98464.28;5063537;28;19924;-90
2024/02/05 00:41:06;;;;;;;;;;;;;;;8.40;72.71;98466.16;5053781;28;19998;-91
2024/02/05 00:43:54;;;;;;;;;;;;;;;8.35;73.10;98445.34;5056523;28;20011;-90
2024/02/05 00:46:42;;;;;;;;;;;;;;;8.44;72.93;98452.88;5070218;28;19924;-90
2024/02/05 00:49:30;;;;;;;;;;;;;;;8.46;72.83;98456.91;5049145;28;19924;-89
2024/02/05 00:52:18;;;;;;;;;;;;;;;8.44;72.61;98450.19;5053562;28;20376;-90
2024/02/05 00:55:07;;;;;;;;;;;;;;;8.50;72.70;98457.97;5049482;28;19929;-90
2024/02/05 00:57:56;;;;;;;;;;;;;;;8.51;72.64;98456.06;5067522;28;19940;-91
2024/02/05 01:00:48;;;;;;;;;;;;;;;8.47;72.78;98460.44;5062106;28;19928;-89
2024/02/05 01:03:36;;;;;;;;;;;;;;;8.49;72.83;98461.78;5062461;28;19935;-90
2024/02/05 01:06:24;;;;;;;;;;;;;;;8.45;73.08;98457.19;5063766;28;20008;-90
2024/02/05 01:09:12;;;;;;;;;;;;;;;8.48;73.19;98448.53;5054747;28;20437;-90
2024/02/05 01:12:00;;;;;;;;;;;;;;;8.45;73.33;98470.75;5065519;28;20063;-89
2024/02/05 01:14:50;;;;;;;;;;;;;;;8.44;73.32;98464.53;5053680;28;19933;-87
2024/02/05 01:17:38;;;;;;;;;;;;;;;8.46;73.48;98461.53;5066778;28;19979;-89
2024/02/05 01:20:26;;;;;;;;;;;;;;;8.39;73.74;98462.66;5069742;28;19925;-89
2024/02/05 01:23:15;;;;;;;;;;;;;;;8.39;73.84;98468.06;5067619;28;19931;-88
2024/02/05 01:26:03;;;;;;;;;;;;;;;8.44;73.68;98461.00;5056194;28;20305;-88
2024/02/05 01:28:51;;;;;;;;;;;;;;;8.46;73.69;98456.91;5048835;28;20015;-89
2024/02/05 01:31:44;;;;;;;;;;;;;;;8.48;73.87;98459.34;5061933;28;19929;-89
2024/02/05 01:34:32;;;;;;;;;;;;;;;8.48;73.58;98454.75;5066995;28;20008;-89
2024/02/05 01:37:20;;;;;;;;;;;;;;;8.46;73.52;98454.19;5059486;28;20328;-91
2024/02/05 01:40:10;;;;;;;;;;;;;;;8.45;73.76;98452.59;5055524;28;19924;-91
2024/02/05 01:43:02;;;;;;;;;;;;;;;8.47;73.75;98461.25;5052251;28;20371;-92
2024/02/05 01:45:50;;;;;;;;;;;;;;;8.38;73.93;98460.25;5051792;28;19932;-92
2024/02/05 01:48:41;;;;;;;;;;;;;;;8.41;73.74;98446.13;5060308;28;19990;-92
2024/02/05 01:51:29;;;;;;;;;;;;;;;8.39;73.80;98446.41;5052195;28;19929;-92
2024/02/05 01:54:18;;;;;;;;;;;;;;;8.43;73.81;98438.53;5051574;28;19925;-91
2024/02/05 01:57:07;;;;;;;;;;;;;;;8.42;73.68;98455.09;5093887;28;19928;-92
2024/02/05 01:59:55;;;;;;;;;;;;;;;8.42;73.79;98444.25;5060537;28;19967;-92
2024/02/05 02:02:44;;;;;;;;;;;;;;;8.40;73.81;98447.22;5063230;28;19924;-91
2024/02/05 02:05:33;;;;;;;;;;;;;;;8.46;73.67;98446.09;5057402;28;20015;-93
2024/02/05 02:08:22;;;;;;;;;;;;;;;8.42;73.58;98460.50;5055272;28;20013;-91
2024/02/05 02:11:10;;;;;;;;;;;;;;;8.38;73.66;98452.94;5062961;28;19964;-92
2024/02/05 02:13:58;;;;;;;;;;;;;;;8.44;73.47;98447.47;5054416;28;19955;-90
2024/02/05 02:16:47;;;;;;;;;;;;;;;8.36;73.78;98459.69;5054389;28;20133;-93
2024/02/05 02:19:38;;;;;;;;;;;;;;;8.34;73.54;98459.97;5052966;28;20082;-93
2024/02/05 02:22:32;;;;;;;;;;;;;;;8.34;73.41;98457.25;5054272;28;19924;-91
2024/02/05 02:25:23;;;;;;;;;;;;;;;8.38;73.49;98444.81;5050223;28;20799;-92
2024/02/05 02:28:11;;;;;;;;;;;;;;;8.42;73.18;98449.66;5066504;28;19928;-92
2024/02/05 02:31:01;;;;;;;;;;;;;;;8.41;72.90;98448.81;5065797;28;19924;-91
2024/02/05 02:33:50;;;;;;;;;;;;;;;8.40;72.77;98448.03;5059442;28;19932;-91
2024/02/05 02:36:40;;;;;;;;;;;;;;;8.36;72.57;98443.47;5053086;28;19932;-92
2024/02/05 02:39:30;;;;;;;;;;;;;;;8.35;72.82;98439.91;5064783;28;19975;-90
2024/02/05 02:42:20;;;;;;;;;;;;;;;8.36;72.58;98443.47;5046001;28;19932;-92
2024/02/05 02:45:08;;;;;;;;;;;;;;;8.30;72.80;98431.84;5053688;28;19925;-92
2024/02/05 02:47:57;;;;;;;;;;;;;;;8.29;72.77;98441.06;5067956;28;20045;-88
2024/02/05 02:50:45;;;;;;;;;;;;;;;8.34;72.49;98437.50;5069707;28;19935;-89
2024/02/05 02:53:35;;;;;;;;;;;;;;;8.32;72.32;98439.69;5070062;28;19967;-89
2024/02/05 02:56:23;;;;;;;;;;;;;;;8.30;72.38;98436.44;5054533;28;19947;-89
2024/02/05 02:59:12;;;;;;;;;;;;;;;8.29;72.36;98446.47;5070919;28;19928;-89
2024/02/05 03:02:01;;;;;;;;;;;;;;;8.23;72.65;98436.78;5070256;28;19947;-89
2024/02/05 03:04:51;;;;;;;;;;;;;;;8.22;72.75;98429.75;5066572;28;19931;-89
2024/02/05 03:07:39;;;;;;;;;;;;;;;8.24;72.42;98432.97;5064928;28;19928;-89
2024/02/05 03:10:27;;;;;;;;;;;;;;;8.24;72.51;98440.28;5067653;28;19925;-89
2024/02/05 03:13:16;;;;;;;;;;;;;;;8.22;72.61;98429.75;5053289;28;19926;-88
2024/02/05 03:16:08;;;;;;;;;;;;;;;8.22;72.42;98437.06;5067588;28;19931;-89
2024/02/05 03:18:56;;;;;;;;;;;;;;;8.21;72.52;98438.97;5062292;28;20395;-89
2024/02/05 03:21:44;;;;;;;;;;;;;;;8.25;72.46;98450.03;5071450;28;20390;-88
2024/02/05 03:24:33;;;;;;;;;;;;;;;8.29;72.50;98442.97;5056651;28;20328;-87
2024/02/05 03:27:21;;;;;;;;;;;;;;;8.25;72.65;98439.19;5061051;28;19936;-87
2024/02/05 03:30:10;;;;;;;;;;;;;;;8.29;72.51;98451.06;5052743;28;19931;-87
2024/02/05 03:32:59;;;;;;;;;;;;;;;8.28;72.22;98447.56;5072574;28;19925;-88
2024/02/05 03:35:47;;;;;;;;;;;;;;;8.25;72.57;98444.59;5065439;28;19943;-87
2024/02/05 03:38:35;;;;;;;;;;;;;;;8.24;72.51;98443.78;5068626;28;19924;-88
2024/02/05 03:41:23;;;;;;;;;;;;;;;8.24;72.48;98449.22;5070532;28;19925;-90
2024/02/05 03:44:12;;;;;;;;;;;;;;;8.23;72.50;98461.13;5068117;28;19928;-88
2024/02/05 03:47:00;;;;;;;;;;;;;;;8.17;72.67;98451.44;5062303;28;19926;-89
2024/02/05 03:49:49;;;;;;;;;;;;;;;8.22;72.67;98451.41;5065105;28;20307;-89
2024/02/05 03:52:44;;;;;;;;;;;;;;;8.25;72.38;98448.13;5049583;28;23106;-88
2024/02/05 03:55:32;;;;;;;;;;;;;;;8.19;72.59;98451.16;5054139;28;19935;-88
2024/02/05 03:58:20;;;;;;;;;;;;;;;8.25;72.62;98452.72;5064498;28;19924;-76
2024/02/05 04:01:09;;;;;;;;;;;;;;;8.17;72.67;98448.75;5067548;28;19925;-76
2024/02/05 04:03:57;;;;;;;;;;;;;;;8.19;72.80;98453.84;5062644;28;20001;-77
2024/02/05 04:06:47;;;;;;;;;;;;;;;8.22;72.37;98464.94;5059308;28;20291;-77
2024/02/05 04:09:36;;;;;;;;;;;;;;;8.20;72.68;98469.81;5050083;28;19924;-76
2024/02/05 04:12:25;;;;;;;;;;;;;;;8.19;72.67;98472.81;5052769;28;20329;-77
2024/02/05 04:15:14;;;;;;;;;;;;;;;8.21;72.67;98471.44;5082249;28;19936;-83
2024/02/05 04:18:02;;;;;;;;;;;;;;;8.19;72.75;98486.34;5069150;28;20335;-77
2024/02/05 04:20:52;;;;;;;;;;;;;;;8.20;72.91;98477.13;5063495;28;19929;-77
2024/02/05 04:23:42;;;;;;;;;;;;;;;8.21;72.96;98476.88;5050104;28;19925;-77
2024/02/05 04:26:30;;;;;;;;;;;;;;;8.23;72.62;98484.69;5062637;28;19925;-77
2024/02/05 04:29:24;;;;;;;;;;;;;;;8.24;72.59;98487.09;5068771;28;19932;-76
2024/02/05 04:32:12;;;;;;;;;;;;;;;8.21;72.71;98476.88;5049825;28;19935;-76
2024/02/05 04:35:00;;;;;;;;;;;;;;;8.17;72.75;98485.81;5063988;28;19928;-77
2024/02/05 04:37:49;;;;;;;;;;;;;;;8.19;72.73;98484.44;5060378;28;20319;-77
2024/02/05 04:40:39;;;;;;;;;;;;;;;8.17;72.79;98478.50;5066854;28;19932;-76
2024/02/05 04:43:27;;;;;;;;;;;;;;;8.21;72.81;98487.69;5064218;28;19932;-78
2024/02/05 04:46:16;;;;;;;;;;;;;;;8.21;72.49;98482.28;5061581;28;19931;-77
2024/02/05 04:49:05;;;;;;;;;;;;;;;8.23;72.31;98490.91;5052026;28;20406;-76
2024/02/05 04:51:53;;;;;;;;;;;;;;;8.23;72.65;98485.50;5065973;28;20395;-77
2024/02/05 04:54:41;;;;;;;;;;;;;;;8.24;72.44;98481.69;5067159;28;20018;-77
2024/02/05 04:57:31;;;;;;;;;;;;;;;8.24;72.38;98470.06;5062993;28;19930;-77
2024/02/05 05:00:20;;;;;;;;;;;;;;;8.30;72.09;98485.16;5049619;28;19931;-78
2024/02/05 05:03:08;;;;;;;;;;;;;;;8.28;72.15;98477.34;5065301;28;19947;-76
2024/02/05 05:05:56;;;;;;;;;;;;;;;8.29;72.27;98484.38;5046960;28;19935;-77
2024/02/05 05:08:44;;;;;;;;;;;;;;;8.29;72.07;98467.31;5068362;28;20280;-91
2024/02/05 05:11:33;;;;;;;;;;;;;;;8.32;71.97;98475.69;5059952;28;19935;-90
2024/02/05 05:14:23;;;;;;;;;;;;;;;8.43;71.91;98487.28;5044289;28;19940;-91
2024/02/05 05:17:11;;;;;;;;;;;;;;;8.46;71.25;98484.00;5048800;28;20023;-91
2024/02/05 05:20:00;;;;;;;;;;;;;;;8.52;71.42;98492.88;5051882;28;19924;-92
2024/02/05 05:22:48;;;;;;;;;;;;;;;8.60;71.01;98473.31;5053941;28;19940;-93
2024/02/05 05:25:37;;;;;;;;;;;;;;;8.69;70.58;98468.13;5055434;28;19924;-92
2024/02/05 05:28:25;;;;;;;;;;;;;;;8.67;70.53;98490.03;5056050;28;19925;-91
2024/02/05 05:31:16;;;;;;;;;;;;;;;8.74;70.09;98493.25;5052725;28;19933;-92
2024/02/05 05:34:06;;;;;;;;;;;;;;;8.72;70.24;98492.72;5055569;28;19924;-92
2024/02/05 05:36:54;;;;;;;;;;;;;;;8.77;69.90;98500.78;5068902;28;19949;-91
2024/02/05 05:39:42;;;;;;;;;;;;;;;8.84;69.95;98498.56;5058799;28;19924;-91
2024/02/05 05:42:32;;;;;;;;;;;;;;;8.78;69.85;98501.59;5053376;28;20015;-91
2024/02/05 05:45:20;;;;;;;;;;;;;;;8.87;69.55;98495.28;5057738;28;19924;-92
2024/02/05 05:48:10;;;;;;;;;;;;;;;8.77;69.59;98506.22;5057552;28;20280;-93
2024/02/05 05:50:59;;;;;;;;;;;;;;;8.80;69.67;98499.44;5054403;28;20407;-90
2024/02/05 05:53:47;;;;;;;;;;;;;;;8.82;69.54;98498.03;5056479;28;20407;-84
2024/02/05 05:56:35;;;;;;;;;;;;;;;8.81;69.91;98496.44;5068218;28;19930;-87
2024/02/05 05:59:23;;;;;;;;;;;;;;;8.79;69.71;98500.50;5054071;28;19928;-84
2024/02/05 06:02:14;;;;;;;;;;;;;;;8.81;69.48;98501.03;5049900;28;19936;-86
2024/02/05 06:05:05;;;;;;;;;;;;;;;8.88;69.63;98510.44;5050524;28;19925;-92
2024/02/05 06:07:57;;;;;;;;;;;;;;;8.85;69.59;98511.03;5053449;28;19925;-94
2024/02/05 06:10:50;;;;;;;;;;;;;;;8.81;69.70;98511.88;5066913;28;20033;-93
2024/02/05 06:13:38;;;;;;;;;;;;;;;8.78;69.70;98502.41;5065412;28;20380;-95
2024/02/05 06:16:30;;;;;;;;;;;;;;;8.74;70.09;98501.38;5059338;28;20398;-90
2024/02/05 06:19:18;;;;;;;;;;;;;;;8.81;69.48;98507.25;5061633;28;20372;-82
2024/02/05 06:22:08;;;;;;;;;;;;;;;8.72;69.80;98497.31;5065499;28;20323;-81
2024/02/05 06:24:56;;;;;;;;;;;;;;;8.84;69.53;98505.88;5070403;28;20299;-88
2024/02/05 06:27:45;;;;;;;;;;;;;;;8.85;69.64;98508.31;5054530;28;20011;-88
2024/02/05 06:30:34;;;;;;;;;;;;;;;8.92;69.23;98508.78;5073685;28;19929;-86
2024/02/05 06:33:22;;;;;;;;;;;;;;;8.86;69.46;98507.22;5087856;28;19912;-88
2024/02/05 06:36:11;;;;;;;;;;;;;;;8.87;69.22;98511.53;5047317;28;20059;-90
2024/02/05 06:39:00;;;;;;;;;;;;;;;8.87;69.23;98511.53;5059640;28;20015;-93
2024/02/05 06:41:48;;;;;;;;;;;;;;;8.90;69.15;98523.72;5068008;28;19928;-91
2024/02/05 06:44:37;;;;;;;;;;;;;;;8.91;69.41;98526.13;5058190;28;20070;-90
2024/02/05 06:47:25;;;;;;;;;;;;;;;8.84;69.24;98533.81;5057966;28;19931;-90
2024/02/05 06:50:14;;;;;;;;;;;;;;;8.93;69.32;98542.09;5055296;28;20014;-90
2024/02/05 06:53:02;;;;;;;;;;;;;;;8.97;68.73;98536.94;5049347;28;19932;-91
2024/02/05 06:55:52;;;;;;;;;;;;;;;9.01;68.80;98532.56;5067641;28;19939;-90
2024/02/05 06:58:40;;;;;;;;;;;;;;;8.94;68.80;98538.31;5056826;28;19924;-90
2024/02/05 07:01:28;;;;;;;;;;;;;;;8.88;69.09;98534.81;5050861;28;19932;-91
2024/02/05 07:04:16;;;;;;;;;;;;;;;8.99;68.92;98538.25;5057422;28;19924;-90
2024/02/05 07:07:04;;;;;;;;;;;;;;;9.02;68.50;98543.13;5059445;28;19935;-90
2024/02/05 07:09:53;;;;;;;;;;;;;;;9.03;68.38;98550.16;5059209;28;19924;-91
2024/02/05 07:12:42;;;;;;;;;;;;;;;8.90;68.84;98553.53;5044624;28;20041;-90
2024/02/05 07:15:34;;;;;;;;;;;;;;;8.93;68.70;98561.06;5056473;28;20013;-92
2024/02/05 07:18:22;;;;;;;;;;;;;;;8.83;69.12;98555.75;5050423;28;19924;-92
2024/02/05 07:21:10;;;;;;;;;;;;;;;8.92;69.07;98565.69;5066168;28;19925;-90
2024/02/05 07:24:00;;;;;;;;;;;;;;;8.96;68.68;98570.56;5045582;28;20014;-90
2024/02/05 07:26:48;;;;;;;;;;;;;;;8.91;69.18;98566.78;5067878;28;19932;-91
2024/02/05 07:29:39;;;;;;;;;;;;;;;8.92;68.96;98571.09;5045158;28;19932;-81
2024/02/05 07:32:28;;;;;;;;;;;;;;;8.97;68.71;98564.03;5056018;28;20015;-79
2024/02/05 07:35:16;;;;;;;;;;;;;;;9.01;68.56;98582.16;5051444;28;19925;-81
2024/02/05 07:38:04;;;;;;;;;;;;;;;8.74;69.41;98577.22;5064890;28;19933;-79
2024/02/05 07:40:52;;;;;;;;;;;;;;;8.81;69.44;98587.75;5069450;28;19925;-80
2024/02/05 07:43:40;;;;;;;;;;;;;;;8.87;68.97;98576.56;5047444;28;20010;-81
2024/02/05 07:46:30;;;;;;;;;;;;;;;8.89;69.17;98577.13;5053235;28;19931;-79
2024/02/05 07:49:19;;;;;;;;;;;;;;;8.87;69.17;98587.41;5055966;28;19925;-78
2024/02/05 07:52:07;;;;;;;;;;;;;;;8.95;68.71;98582.47;5052954;28;19932;-81
2024/02/05 07:54:55;;;;;;;;;;;;;;;8.90;68.98;98586.06;5052821;28;19928;-80
2024/02/05 07:57:43;;;;;;;;;;;;;;;8.90;68.90;98589.56;5053303;28;19932;-80
2024/02/05 08:00:32;;;;;;;;;;;;;;;8.96;68.76;98593.03;5070238;28;20388;-81
2024/02/05 08:03:22;;;;;;;;;;;;;;;9.01;68.40;98600.31;5052763;28;19925;-77
2024/02/05 08:06:18;;;;;;;;;;;;;;;8.85;68.70;98595.03;5056871;28;19925;-81
2024/02/05 08:09:08;;;;;;;;;;;;;;;8.83;69.08;98597.19;5051483;28;19994;-79
2024/02/05 08:11:57;;;;;;;;;;;;;;;8.85;68.83;98592.31;5051397;28;19939;-79
2024/02/05 08:14:46;;;;;;;;;;;;;;;8.95;68.65;98587.88;5053165;28;19925;-82
2024/02/05 08:17:34;;;;;;;;;;;;;;;8.95;68.40;98596.00;5052064;28;20391;-80
2024/02/05 08:20:23;;;;;;;;;;;;;;;8.84;68.64;98596.13;5066395;28;19924;-80
2024/02/05 08:23:12;;;;;;;;;;;;;;;8.89;68.39;98598.78;5051207;28;20422;-80
2024/02/05 08:26:00;;;;;;;;;;;;;;;8.96;68.19;98600.38;5052651;28;19932;-81
2024/02/05 08:28:48;;;;;;;;;;;;;;;9.09;68.02;98602.41;5053270;28;19958;-84
2024/02/05 08:31:39;;;;;;;;;;;;;;;9.09;67.83;98614.06;5048133;28;19999;-79
2024/02/05 08:34:27;;;;;;;;;;;;;;;9.04;67.73;98608.69;5053720;28;20269;-81
2024/02/05 08:37:17;;;;;;;;;;;;;;;9.16;67.69;98611.84;5055442;28;19928;-93
2024/02/05 08:40:06;;;;;;;;;;;;;;;9.04;67.55;98611.38;5064867;28;19932;-90
2024/02/05 08:42:55;;;;;;;;;;;;;;;9.05;67.64;98601.34;5055257;28;19925;-92
2024/02/05 08:45:43;;;;;;;;;;;;;;;9.04;67.63;98611.38;5060346;28;20292;-92
2024/02/05 08:48:37;;;;;;;;;;;;;;;9.07;67.42;98624.38;5070472;28;19928;-92
2024/02/05 08:51:30;;;;;;;;;;;;;;;9.00;67.38;98604.09;5062301;28;19931;-91
2024/02/05 08:54:19;;;;;;;;;;;;;;;9.04;67.33;98608.69;5056503;28;19932;-92
2024/02/05 08:57:11;;;;;;;;;;;;;;;9.10;67.46;98604.03;5054109;28;19925;-91
2024/02/05 08:59:59;;;;;;;;;;;;;;;9.28;67.07;98603.31;5038944;28;19931;-92
2024/02/05 09:02:48;;;;;;;;;;;;;;;9.16;66.86;98602.88;5054939;28;20017;-90
2024/02/05 09:05:36;;;;;;;;;;;;;;;9.15;67.09;98601.25;5057776;28;19990;-92
2024/02/05 09:08:31;;;;;;;;;;;;;;;9.24;66.80;98604.97;5055918;28;19990;-94
2024/02/05 09:11:20;;;;;;;;;;;;;;;9.25;66.52;98606.59;5058065;28;20066;-93
2024/02/05 09:14:08;;;;;;;;;;;;;;;9.19;66.71;98600.41;5058385;28;19925;-91
2024/02/05 09:16:57;;;;;;;;;;;;;;;9.27;66.71;98604.44;5057520;28;20389;-91
2024/02/05 09:19:46;;;;;;;;;;;;;;;9.22;66.19;98599.06;5068032;28;19924;-92
2024/02/05 09:22:34;;;;;;;;;;;;;;;9.31;66.25;98601.94;5056538;28;19925;-92
2024/02/05 09:25:25;;;;;;;;;;;;;;;9.26;65.88;98594.66;5047836;28;20030;-91
2024/02/05 09:28:15;;;;;;;;;;;;;;;9.30;66.06;98590.28;5067019;28;19924;-92
2024/02/05 09:31:04;;;;;;;;;;;;;;;9.42;65.39;98590.69;5043067;28;19925;-91
2024/02/05 09:33:59;;;;;;;;;;;;;;;9.47;65.30;98595.25;5045956;28;19931;-91
2024/02/05 09:36:47;;;;;;;;;;;;;;;9.47;64.65;98599.88;5050675;28;19928;-92
2024/02/05 09:39:35;;;;;;;;;;;;;;;9.44;64.74;98593.13;5050773;28;19924;-93
2024/02/05 09:42:23;;;;;;;;;;;;;;;9.61;64.48;98603.53;5053298;28;20007;-93
2024/02/05 09:45:15;;;;;;;;;;;;;;;9.58;64.33;98588.63;5070538;28;19925;-92
2024/02/05 09:48:04;;;;;;;;;;;;;;;9.65;64.25;98596.44;5052666;28;19925;-76
2024/02/05 09:50:52;;;;;;;;;;;;;;;9.47;63.80;98594.44;5048661;28;19932;-76
2024/02/05 09:53:43;;;;;;;;;;;;;;;9.52;63.99;98591.69;5059269;28;20391;-76
2024/02/05 09:56:32;;;;;;;;;;;;;;;9.53;64.00;98593.31;5053775;28;20058;-75
2024/02/05 09:59:26;;;;;;;;;;;;;;;9.60;63.83;98599.22;5051904;28;19924;-77
2024/02/05 10:02:16;;;;;;;;;;;;;;;9.52;63.90;98591.69;5068023;28;19924;-78
2024/02/05 10:05:04;;;;;;;;;;;;;;;9.54;64.06;98594.94;5047240;28;19932;-77
2024/02/05 10:07:53;;;;;;;;;;;;;;;9.61;63.53;98600.81;5053166;28;19924;-75
2024/02/05 10:10:41;;;;;;;;;;;;;;;9.67;63.66;98592.34;5049365;28;19940;-77
2024/02/05 10:13:29;;;;;;;;;;;;;;;9.68;63.58;98593.13;5049722;28;20265;-76
2024/02/05 10:16:19;;;;;;;;;;;;;;;9.72;63.54;98596.91;5056673;28;19932;-78
2024/02/05 10:19:08;;;;;;;;;;;;;;;9.79;62.79;98604.69;5055319;28;19928;-77
2024/02/05 10:21:57;;;;;;;;;;;;;;;9.56;63.41;98598.16;5055930;28;19925;-76
2024/02/05 10:24:45;;;;;;;;;;;;;;;9.68;62.90;98587.72;5067620;28;20308;-76
2024/02/05 10:27:34;;;;;;;;;;;;;;;9.75;62.44;98590.91;5054513;28;19924;-76
2024/02/05 10:30:22;;;;;;;;;;;;;;;9.84;62.47;98591.88;5056995;28;20390;-77
2024/02/05 10:33:13;;;;;;;;;;;;;;;9.84;62.23;98581.00;5049642;28;19931;-75
2024/02/05 10:36:03;;;;;;;;;;;;;;;9.91;62.41;98586.91;5061043;28;19924;-77
2024/02/05 10:38:53;;;;;;;;;;;;;;;10.00;61.87;98586.25;5071745;28;19968;-76
2024/02/05 10:41:41;;;;;;;;;;;;;;;9.87;61.92;98579.63;5049032;28;19925;-77
2024/02/05 10:44:30;;;;;;;;;;;;;;;9.88;61.83;98579.34;5069774;28;19931;-76
2024/02/05 10:47:24;;;;;;;;;;;;;;;10.09;61.45;98573.66;5054921;28;20011;-77
2024/02/05 10:50:13;;;;;;;;;;;;;;;10.09;61.03;98570.94;5058188;28;20007;-77
2024/02/05 10:53:04;;;;;;;;;;;;;;;10.13;61.20;98580.13;5052702;28;19970;-77
2024/02/05 10:55:52;;;;;;;;;;;;;;;10.06;60.72;98561.47;5054962;28;19943;-76
2024/02/05 10:58:42;;;;;;;;;;;;;;;10.06;60.69;98561.47;5050458;28;19956;-91
2024/02/05 11:01:32;;;;;;;;;;;;;;;10.02;61.23;98551.50;5060071;28;19931;-91
2024/02/05 11:04:20;;;;;;;;;;;;;;;10.07;60.85;98549.53;5081575;28;19959;-92
2024/02/05 11:07:11;;;;;;;;;;;;;;;10.00;60.58;98535.47;5059586;28;19931;-94
2024/02/05 11:10:02;;;;;;;;;;;;;;;10.08;60.73;98539.47;5060223;28;19954;-90
2024/02/05 11:12:51;;;;;;;;;;;;;;;10.14;60.72;98539.09;5057733;28;19928;-90
2024/02/05 11:15:39;;;;;;;;;;;;;;;10.27;60.42;98524.00;5050742;28;19924;-91
2024/02/05 11:18:29;;;;;;;;;;;;;;;10.24;60.11;98519.16;5072061;28;19944;-90
2024/02/05 11:21:17;;;;;;;;;;;;;;;10.31;60.05;98529.66;5062677;28;19947;-91
2024/02/05 11:24:06;;;;;;;;;;;;;;;10.22;59.77;98519.41;5053948;28;19931;-90
2024/02/05 11:26:55;;;;;;;;;;;;;;;10.14;59.71;98522.00;5054297;28;20375;-91
2024/02/05 11:29:44;;;;;;;;;;;;;;;10.21;59.82;98517.81;5047661;28;19932;-91
2024/02/05 11:32:33;;;;;;;;;;;;;;;10.25;59.82;98517.25;5062781;28;20292;-91
2024/02/05 11:35:26;;;;;;;;;;;;;;;10.26;59.98;98503.38;5058025;28;19924;-91
2024/02/05 11:38:14;;;;;;;;;;;;;;;10.28;60.02;98506.63;5071722;28;19928;-91
2024/02/05 11:41:03;;;;;;;;;;;;;;;10.19;59.94;98497.50;5049330;28;19924;-90
2024/02/05 11:43:52;;;;;;;;;;;;;;;10.28;59.68;98501.19;5058279;28;19929;-91
2024/02/05 11:46:41;;;;;;;;;;;;;;;10.30;59.86;98498.97;5055766;28;19925;-92
2024/02/05 11:49:32;;;;;;;;;;;;;;;10.42;59.58;98493.91;5057476;28;19928;-92
2024/02/05 11:52:20;;;;;;;;;;;;;;;10.38;58.86;98495.59;5069425;28;19968;-91
2024/02/05 11:55:08;;;;;;;;;;;;;;;10.35;59.07;98488.03;5052687;28;19928;-91
2024/02/05 11:57:56;;;;;;;;;;;;;;;10.34;59.25;98482.91;5056588;28;19990;-92
2024/02/05 12:00:49;;;;;;;;;;;;;;;10.48;58.75;98481.84;5056879;28;19925;-91
2024/02/05 12:03:37;;;;;;;;;;;;;;;10.60;58.45;98480.56;5050068;28;19931;-91
2024/02/05 12:06:26;;;;;;;;;;;;;;;10.72;58.47;98489.88;5053889;28;20257;-91
2024/02/05 12:09:15;;;;;;;;;;;;;;;10.79;57.84;98484.06;5059800;28;19931;-91
2024/02/05 12:12:05;;;;;;;;;;;;;;;10.79;58.17;98481.34;5045667;28;19931;-90
2024/02/05 12:14:53;;;;;;;;;;;;;;;10.96;57.26;98476.13;5043139;28;19928;-93
2024/02/05 12:17:44;;;;;;;;;;;;;;;11.05;57.33;98472.72;5054171;28;19924;-92
2024/02/05 12:20:33;;;;;;;;;;;;;;;11.11;56.49;98475.03;5058274;28;19924;-93
2024/02/05 12:23:21;;;;;;;;;;;;;;;11.05;56.96;98473.53;5052682;28;19925;-92
2024/02/05 12:26:09;;;;;;;;;;;;;;;11.00;56.57;98471.72;5070129;28;19928;-92
2024/02/05 12:28:59;;;;;;;;;;;;;;;11.09;56.27;98471.03;5055453;28;20380;-92
2024/02/05 12:31:47;;;;;;;;;;;;;;;11.16;56.44;98474.16;5069799;28;19944;-92
2024/02/05 12:34:36;;;;;;;;;;;;;;;11.17;56.24;98468.41;5043889;28;19925;-92
2024/02/05 12:37:25;;;;;;;;;;;;;;;11.22;55.95;98464.78;5054715;28;20275;-92
2024/02/05 12:40:13;;;;;;;;;;;;;;;11.15;56.25;98461.66;5062891;28;19924;-90
2024/02/05 12:43:01;;;;;;;;;;;;;;;11.17;56.17;98448.56;5052105;28;19924;-90
2024/02/05 12:45:49;;;;;;;;;;;;;;;11.19;56.54;98449.88;5057870;28;19928;-89
2024/02/05 12:48:37;;;;;;;;;;;;;;;11.28;56.17;98439.09;5053864;28;19930;-91
2024/02/05 12:51:27;;;;;;;;;;;;;;;11.34;56.10;98435.16;5055625;28;19924;-93
2024/02/05 12:54:15;;;;;;;;;;;;;;;11.37;55.68;98439.19;5057919;28;19924;-90
2024/02/05 12:57:05;;;;;;;;;;;;;;;11.41;55.60;98432.03;5047034;28;20379;-93
2024/02/05 12:59:54;;;;;;;;;;;;;;;11.30;55.42;98428.72;5055295;28;19935;-93
2024/02/05 13:02:42;;;;;;;;;;;;;;;11.28;55.62;98441.81;5067345;28;20007;-92
2024/02/05 13:05:30;;;;;;;;;;;;;;;11.26;55.41;98428.53;5051107;28;20375;-92
2024/02/05 13:08:20;;;;;;;;;;;;;;;11.31;55.62;98427.63;5057301;28;19924;-91
2024/02/05 13:11:08;;;;;;;;;;;;;;;11.40;55.42;98430.41;5055505;28;20033;-91
2024/02/05 13:13:56;;;;;;;;;;;;;;;11.38;55.24;98419.84;5065341;28;20273;-90
2024/02/05 13:16:44;;;;;;;;;;;;;;;11.45;55.19;98417.53;5062525;28;19924;-90
2024/02/05 13:19:32;;;;;;;;;;;;;;;11.46;55.15;98410.97;5080638;28;19932;-90
2024/02/05 13:22:21;;;;;;;;;;;;;;;11.57;55.39;98417.00;5068427;28;19929;-90
2024/02/05 13:25:10;;;;;;;;;;;;;;;11.49;55.17;98396.75;5064329;28;20025;-89
2024/02/05 13:27:58;;;;;;;;;;;;;;;11.58;54.86;98399.56;5066756;28;19928;-79
2024/02/05 13:30:46;;;;;;;;;;;;;;;11.52;54.73;98398.88;5056408;28;20403;-78
2024/02/05 13:33:35;;;;;;;;;;;;;;;11.57;54.32;98387.06;5052035;28;19932;-79
2024/02/05 13:36:23;;;;;;;;;;;;;;;11.49;54.40;98388.59;5054050;28;19928;-78
2024/02/05 13:39:15;;;;;;;;;;;;;;;11.38;54.61;98387.19;5059204;28;20372;-82
2024/02/05 13:42:07;;;;;;;;;;;;;;;11.38;54.60;98383.66;5050660;28;20015;-79
2024/02/05 13:44:55;;;;;;;;;;;;;;;11.38;54.71;98384.47;5066525;28;20311;-78
2024/02/05 13:47:44;;;;;;;;;;;;;;;11.39;54.64;98388.81;5055919;28;19931;-79
2024/02/05 13:50:32;;;;;;;;;;;;;;;11.47;55.13;98390.81;5056467;28;20054;-79
2024/02/05 13:53:20;;;;;;;;;;;;;;;11.51;54.72;98388.31;5051378;28;19971;-79
2024/02/05 13:56:08;;;;;;;;;;;;;;;11.43;54.60;98384.38;5054979;28;19932;-78
2024/02/05 13:58:58;;;;;;;;;;;;;;;11.48;54.58;98386.19;5053650;28;19928;-80
2024/02/05 14:01:47;;;;;;;;;;;;;;;11.54;54.00;98372.16;5057903;28;19924;-79
2024/02/05 14:04:35;;;;;;;;;;;;;;;11.53;54.03;98375.97;5056250;28;20415;-81
2024/02/05 14:07:23;;;;;;;;;;;;;;;11.45;54.19;98387.59;5056869;28;19989;-81
2024/02/05 14:10:11;;;;;;;;;;;;;;;11.54;54.29;98377.59;5054812;28;20476;-80
2024/02/05 14:12:59;;;;;;;;;;;;;;;11.63;54.38;98374.97;5058451;28;19929;-78
2024/02/05 14:15:49;;;;;;;;;;;;;;;11.63;54.31;98376.88;5059059;28;19948;-78
2024/02/05 14:18:42;;;;;;;;;;;;;;;11.59;54.19;98375.88;5055063;28;19931;-78
2024/02/05 14:21:31;;;;;;;;;;;;;;;11.49;54.52;98368.72;5063119;28;19928;-78
2024/02/05 14:24:21;;;;;;;;;;;;;;;11.59;54.32;98370.44;5070010;28;19932;-80
2024/02/05 14:27:09;;;;;;;;;;;;;;;11.52;54.29;98371.66;5057961;28;20073;-78
2024/02/05 14:29:58;;;;;;;;;;;;;;;11.52;54.17;98371.66;5060900;28;19932;-78
2024/02/05 14:32:48;;;;;;;;;;;;;;;11.41;54.62;98364.84;5038855;28;19947;-80
2024/02/05 14:35:36;;;;;;;;;;;;;;;11.55;54.62;98365.59;5054475;28;19936;-80
2024/02/05 14:38:24;;;;;;;;;;;;;;;11.53;54.40;98367.81;5061805;28;20303;-96
2024/02/05 14:41:12;;;;;;;;;;;;;;;11.51;54.44;98364.63;5068636;28;20368;-96
2024/02/05 14:44:03;;;;;;;;;;;;;;;11.61;54.32;98362.75;5080671;28;19935;-96
2024/02/05 14:46:51;;;;;;;;;;;;;;;11.68;54.22;98368.59;5062340;28;19925;-96
2024/02/05 14:49:40;;;;;;;;;;;;;;;11.60;54.39;98363.88;5062026;28;19932;-96